createdAt,value
2023-03-31T00:01:43.083Z,2.33
2023-03-31T00:04:13.526Z,2.40
2023-03-31T00:06:43.795Z,2.33
2023-03-31T00:09:14.493Z,2.47
2023-03-31T00:11:42.798Z,1.90
2023-03-31T00:14:10.978Z,2.23
2023-03-31T00:16:39.963Z,2.37
2023-03-31T00:19:09.868Z,1.70
2023-03-31T00:21:38.049Z,1.60
2023-03-31T00:24:08.457Z,2.20
2023-03-31T00:26:37.622Z,2.50
2023-03-31T00:29:07.632Z,1.90
2023-03-31T00:31:36.388Z,1.90
2023-03-31T00:34:04.508Z,2.20
2023-03-31T00:36:36.801Z,2.53
2023-03-31T00:39:09.554Z,3.00
2023-03-31T00:41:39.229Z,2.70
2023-03-31T00:48:10.258Z,2.90
2023-03-31T00:50:45.400Z,2.43
2023-03-31T00:53:16.798Z,2.63
2023-03-31T00:55:49.539Z,2.20
2023-03-31T00:58:20.251Z,1.70
2023-03-31T01:00:49.260Z,2.30
2023-03-31T01:03:18.496Z,2.20
2023-03-31T01:05:50.353Z,2.47
2023-03-31T01:08:24.335Z,2.03
2023-03-31T01:10:56.015Z,1.93
2023-03-31T01:13:25.987Z,2.07
2023-03-31T01:15:54.715Z,1.60
2023-03-31T01:18:23.578Z,1.47
2023-03-31T01:21:26.087Z,1.60
2023-03-31T01:24:27.926Z,1.93
2023-03-31T01:27:08.031Z,2.17
2023-03-31T01:30:00.005Z,1.97
2023-03-31T01:32:59.064Z,1.83
2023-03-31T01:36:11.244Z,2.07
2023-03-31T01:39:12.620Z,2.40
2023-03-31T01:41:51.161Z,1.80
2023-03-31T01:44:24.354Z,2.10
2023-03-31T01:46:57.197Z,2.27
2023-03-31T01:49:32.115Z,2.27
2023-03-31T01:52:05.301Z,1.90
2023-03-31T01:54:40.673Z,2.77
2023-03-31T01:57:16.522Z,2.50
2023-03-31T01:59:50.814Z,1.93
2023-03-31T02:02:25.332Z,2.67
2023-03-31T02:04:59.143Z,2.20
2023-03-31T02:07:32.273Z,1.87
2023-03-31T02:10:06.116Z,2.30
2023-03-31T02:12:37.542Z,2.23
2023-03-31T02:15:10.310Z,2.10
2023-03-31T02:17:42.278Z,1.87
2023-03-31T02:20:15.315Z,1.80
2023-03-31T02:22:47.037Z,2.23
2023-03-31T02:25:20.353Z,2.23
2023-03-31T02:27:54.885Z,1.70
2023-03-31T02:30:23.192Z,2.20
2023-03-31T02:32:51.264Z,2.00
2023-03-31T02:35:22.164Z,1.87
2023-03-31T02:37:50.806Z,1.83
2023-03-31T02:40:20.898Z,2.43
2023-03-31T02:42:50.605Z,1.83
2023-03-31T02:45:44.650Z,1.60
2023-03-31T02:48:18.055Z,1.30
2023-03-31T02:51:01.857Z,1.37
2023-03-31T02:53:39.397Z,1.43
2023-03-31T02:56:21.553Z,1.97
2023-03-31T02:59:03.255Z,1.50
2023-03-31T03:07:10.107Z,1.47
2023-03-31T03:13:48.341Z,1.80
2023-03-31T03:16:24.669Z,1.93
2023-03-31T03:18:59.866Z,1.57
2023-03-31T03:21:28.542Z,2.10
2023-03-31T03:23:56.700Z,2.00
2023-03-31T03:26:28.069Z,2.00
2023-03-31T03:28:56.970Z,1.43
2023-03-31T03:31:26.746Z,1.83
2023-03-31T03:33:55.940Z,2.20
2023-03-31T03:36:24.200Z,2.00
2023-03-31T03:39:29.917Z,1.97
2023-03-31T03:41:58.021Z,2.67
2023-03-31T03:44:26.187Z,2.77
2023-03-31T03:46:55.706Z,1.87
2023-03-31T03:49:23.882Z,2.30
2023-03-31T03:51:51.987Z,2.63
2023-03-31T03:54:20.096Z,2.10
2023-03-31T03:56:48.194Z,3.50
2023-03-31T03:59:16.777Z,2.37
2023-03-31T04:01:45.053Z,2.00
2023-03-31T04:04:14.607Z,2.77
2023-03-31T04:06:42.862Z,2.30
2023-03-31T04:09:11.328Z,2.47
2023-03-31T04:11:39.484Z,2.20
2023-03-31T04:14:07.578Z,3.23
2023-03-31T04:16:38.618Z,2.97
2023-03-31T04:19:07.221Z,4.40
2023-03-31T04:21:36.738Z,3.97
2023-03-31T04:24:05.493Z,4.70
2023-03-31T04:26:43.331Z,2.67
2023-03-31T04:29:13.782Z,3.53
2023-03-31T04:31:44.056Z,3.37
2023-03-31T04:34:14.204Z,2.40
2023-03-31T04:36:47.747Z,3.20
2023-03-31T04:39:17.796Z,2.60
2023-03-31T04:41:46.234Z,2.07
2023-03-31T04:44:14.396Z,1.90
2023-03-31T04:46:42.454Z,2.17
2023-03-31T04:49:10.602Z,2.40
2023-03-31T04:51:38.687Z,2.80
2023-03-31T04:54:08.207Z,2.40
2023-03-31T04:56:36.328Z,3.03
2023-03-31T04:59:04.916Z,2.27
2023-03-31T05:01:36.313Z,2.43
2023-03-31T05:04:05.711Z,3.27
2023-03-31T05:06:34.060Z,2.73
2023-03-31T05:09:02.218Z,1.80
2023-03-31T05:11:31.996Z,2.30
2023-03-31T05:14:00.130Z,2.33
2023-03-31T05:16:28.450Z,2.03
2023-03-31T05:18:56.580Z,2.20
2023-03-31T05:21:26.891Z,2.20
2023-03-31T05:23:55.012Z,2.73
2023-03-31T05:38:39.556Z,1.80
2023-03-31T05:41:09.750Z,3.00
2023-03-31T05:43:38.050Z,2.33
2023-03-31T05:46:07.454Z,2.03
2023-03-31T05:48:37.964Z,3.27
2023-03-31T05:51:06.687Z,2.57
2023-03-31T05:53:35.182Z,2.43
2023-03-31T05:56:06.385Z,2.57
2023-03-31T05:58:37.808Z,2.27
2023-03-31T06:01:08.380Z,2.40
2023-03-31T06:03:38.198Z,2.10
2023-03-31T06:06:08.279Z,2.50
2023-03-31T06:08:37.880Z,1.60
2023-03-31T06:11:08.019Z,2.57
2023-03-31T06:13:38.372Z,6.00
2023-03-31T06:16:07.412Z,2.10
2023-03-31T06:18:37.006Z,1.90
2023-03-31T06:21:05.996Z,1.30
2023-03-31T06:23:34.828Z,1.60
2023-03-31T06:26:06.351Z,1.17
2023-03-31T06:28:35.157Z,1.27
2023-03-31T06:31:07.102Z,1.40
2023-03-31T06:33:36.292Z,1.50
2023-03-31T06:36:05.843Z,1.43
2023-03-31T06:38:34.934Z,1.17
2023-03-31T06:41:03.156Z,1.40
2023-03-31T06:43:31.311Z,1.70
2023-03-31T06:45:59.827Z,1.63
2023-03-31T06:48:29.497Z,1.77
2023-03-31T06:51:01.611Z,1.23
2023-03-31T06:53:30.144Z,1.80
2023-03-31T06:55:58.368Z,1.60
2023-03-31T06:58:27.716Z,1.87
2023-03-31T07:00:57.395Z,1.37
2023-03-31T07:03:26.075Z,1.43
2023-03-31T07:05:56.597Z,1.97
2023-03-31T07:08:25.067Z,1.40
2023-03-31T07:10:57.786Z,1.37
2023-03-31T07:13:27.306Z,1.80
2023-03-31T07:15:56.605Z,1.90
2023-03-31T07:18:26.111Z,1.40
2023-03-31T07:20:55.850Z,1.53
2023-03-31T07:23:23.979Z,1.50
2023-03-31T07:25:52.073Z,2.10
2023-03-31T07:28:20.800Z,1.60
2023-03-31T07:30:48.933Z,1.37
2023-03-31T07:33:17.050Z,1.87
2023-03-31T07:35:51.678Z,1.27
2023-03-31T07:38:29.680Z,1.60
2023-03-31T07:41:07.710Z,1.40
2023-03-31T07:43:37.035Z,1.40
2023-03-31T07:46:06.169Z,1.43
2023-03-31T07:48:34.792Z,1.20
2023-03-31T07:51:03.380Z,1.67
2023-03-31T07:53:32.920Z,1.20
2023-03-31T07:56:01.388Z,1.00
2023-03-31T07:58:29.522Z,1.30
2023-03-31T08:00:57.691Z,2.07
2023-03-31T08:03:26.493Z,1.70
2023-03-31T08:05:55.055Z,1.60
2023-03-31T08:08:23.437Z,1.90
2023-03-31T08:10:53.406Z,1.80
2023-03-31T08:13:21.982Z,2.13
2023-03-31T08:15:50.161Z,1.87
2023-03-31T08:18:18.377Z,2.47
2023-03-31T08:20:49.804Z,2.23
2023-03-31T08:23:17.945Z,2.00
2023-03-31T08:25:46.043Z,3.10
2023-03-31T08:28:15.624Z,2.90
2023-03-31T08:30:44.162Z,3.13
2023-03-31T08:33:13.268Z,2.80
2023-03-31T08:35:41.744Z,2.07
2023-03-31T08:38:09.948Z,2.60
2023-03-31T08:40:41.639Z,2.17
2023-03-31T08:43:16.452Z,2.00
2023-03-31T08:45:48.831Z,2.50
2023-03-31T08:48:26.084Z,2.20
2023-03-31T08:50:58.477Z,2.57
2023-03-31T08:53:29.947Z,1.80
2023-03-31T08:55:59.861Z,2.10
2023-03-31T08:58:39.536Z,1.93
2023-03-31T09:01:19.926Z,2.10
2023-03-31T09:04:00.899Z,2.37
2023-03-31T09:06:38.163Z,3.13
2023-03-31T09:09:15.619Z,2.63
2023-03-31T09:11:51.702Z,3.17
2023-03-31T09:14:27.848Z,2.60
2023-03-31T09:17:09.098Z,3.30
2023-03-31T09:19:40.818Z,2.90
2023-03-31T09:22:15.159Z,2.83
2023-03-31T09:24:53.759Z,3.27
2023-03-31T09:27:22.570Z,3.10
2023-03-31T09:29:54.207Z,3.43
2023-03-31T09:32:26.337Z,3.00
2023-03-31T09:34:58.297Z,3.43
2023-03-31T09:37:29.069Z,2.77
2023-03-31T09:51:27.094Z,2.47
2023-03-31T09:53:59.862Z,2.67
2023-03-31T09:56:52.811Z,2.60
2023-03-31T09:59:22.712Z,2.67
2023-03-31T10:01:53.528Z,2.67
2023-03-31T10:04:25.007Z,3.30
2023-03-31T10:06:55.990Z,4.90
2023-03-31T10:09:28.455Z,2.37
2023-03-31T10:11:58.978Z,1.93
2023-03-31T10:14:33.483Z,2.00
2023-03-31T10:17:05.749Z,2.13
2023-03-31T10:19:35.704Z,2.60
2023-03-31T10:22:06.492Z,2.40
2023-03-31T10:24:40.333Z,2.07
2023-03-31T10:27:16.260Z,2.20
2023-03-31T10:29:45.423Z,1.80
2023-03-31T10:32:19.626Z,2.33
2023-03-31T10:34:47.852Z,2.67
2023-03-31T10:37:20.052Z,2.00
2023-03-31T10:39:48.621Z,2.17
2023-03-31T10:42:23.177Z,2.57
2023-03-31T10:44:51.465Z,2.17
2023-03-31T10:47:21.889Z,2.80
2023-03-31T10:49:52.845Z,2.50
2023-03-31T10:52:24.431Z,2.33
2023-03-31T10:54:56.563Z,2.20
2023-03-31T10:57:35.488Z,2.90
2023-03-31T11:00:15.146Z,2.87
2023-03-31T11:03:19.078Z,3.20
2023-03-31T11:05:51.906Z,2.40
2023-03-31T11:08:36.826Z,1.60
2023-03-31T11:11:18.780Z,2.30
2023-03-31T11:13:54.672Z,1.60
2023-03-31T11:16:29.362Z,1.60
2023-03-31T11:19:12.748Z,1.73
2023-03-31T11:21:54.763Z,1.83
2023-03-31T11:24:37.968Z,1.70
2023-03-31T11:27:25.565Z,2.03
2023-03-31T11:30:02.304Z,2.13
2023-03-31T11:32:41.639Z,2.23
2023-03-31T11:35:30.146Z,1.93
2023-03-31T11:38:18.565Z,2.20
2023-03-31T11:41:00.292Z,2.30
2023-03-31T11:43:34.607Z,1.80
2023-03-31T11:46:06.466Z,2.10
2023-03-31T11:48:41.992Z,1.50
2023-03-31T11:51:15.844Z,2.03
2023-03-31T11:53:46.316Z,1.70
2023-03-31T11:56:17.688Z,2.20
2023-03-31T11:58:48.280Z,2.10
2023-03-31T12:01:22.389Z,2.07
2023-03-31T12:03:58.552Z,1.60
2023-03-31T12:06:31.261Z,2.60
2023-03-31T12:09:08.846Z,1.73
2023-03-31T12:11:44.378Z,2.83
2023-03-31T12:14:28.613Z,2.30
2023-03-31T12:17:00.588Z,2.57
2023-03-31T12:19:35.085Z,2.00
2023-03-31T12:22:11.873Z,2.27
2023-03-31T12:24:40.104Z,1.67
2023-03-31T12:27:14.802Z,1.93
2023-03-31T12:29:45.923Z,2.40
2023-03-31T12:32:17.616Z,1.87
2023-03-31T12:34:50.022Z,2.00
2023-03-31T12:37:46.714Z,1.80
2023-03-31T12:40:26.696Z,2.07
2023-03-31T12:43:09.466Z,1.50
2023-03-31T12:45:42.074Z,1.77
2023-03-31T12:48:40.185Z,1.73
2023-03-31T12:51:21.365Z,1.33
2023-03-31T12:54:04.859Z,1.43
2023-03-31T12:57:15.037Z,1.00
2023-03-31T12:59:45.954Z,1.20
2023-03-31T13:02:26.708Z,1.80
2023-03-31T13:04:54.852Z,1.03
2023-03-31T13:07:43.169Z,0.83
2023-03-31T13:10:29.731Z,1.00
2023-03-31T13:13:03.902Z,1.77
2023-03-31T13:15:34.508Z,1.33
2023-03-31T13:18:04.888Z,1.17
2023-03-31T13:20:36.545Z,1.27
2023-03-31T13:23:08.645Z,1.30
2023-03-31T13:25:48.176Z,1.40
2023-03-31T13:28:35.169Z,1.40
2023-03-31T13:31:06.270Z,1.60
2023-03-31T13:33:42.843Z,1.50
2023-03-31T13:36:41.176Z,1.17
2023-03-31T13:39:30.315Z,1.60
2023-03-31T13:42:14.555Z,1.67
2023-03-31T13:45:08.193Z,1.40
2023-03-31T13:48:01.739Z,1.90
2023-03-31T13:50:52.055Z,1.73
2023-03-31T13:53:39.341Z,1.53
2023-03-31T13:56:39.165Z,1.40
2023-03-31T13:59:43.548Z,1.23
2023-03-31T14:02:57.282Z,2.00
2023-03-31T14:05:31.350Z,1.47
2023-03-31T14:08:03.929Z,3.13
2023-03-31T14:10:33.862Z,1.93
2023-03-31T14:13:10.764Z,1.70
2023-03-31T14:15:43.724Z,1.60
2023-03-31T14:18:17.957Z,1.20
2023-03-31T14:20:52.914Z,1.20
2023-03-31T14:23:32.194Z,2.77
2023-03-31T14:26:06.214Z,1.40
2023-03-31T14:29:01.362Z,1.17
2023-03-31T14:31:35.435Z,1.60
2023-03-31T14:34:16.846Z,1.90
2023-03-31T14:36:57.999Z,0.73
2023-03-31T14:39:30.501Z,1.37
2023-03-31T14:42:03.565Z,1.90
2023-03-31T14:44:32.111Z,0.80
2023-03-31T14:47:01.858Z,1.30
2023-03-31T14:49:36.982Z,0.90
2023-03-31T14:52:16.229Z,1.10
2023-03-31T14:54:47.651Z,1.10
2023-03-31T14:57:20.939Z,1.67
2023-03-31T14:59:52.180Z,1.00
2023-03-31T15:02:32.609Z,1.17
2023-03-31T15:05:04.524Z,1.60
2023-03-31T15:07:32.922Z,1.73
2023-03-31T15:10:01.636Z,2.40
2023-03-31T15:12:30.687Z,1.10
2023-03-31T15:17:37.583Z,1.53
2023-03-31T15:20:28.177Z,2.30
2023-03-31T15:22:57.283Z,1.00
2023-03-31T15:25:29.842Z,1.20
2023-03-31T15:28:01.623Z,1.70
2023-03-31T15:30:31.547Z,1.07
2023-03-31T15:33:15.700Z,1.57
2023-03-31T15:35:48.630Z,1.00
2023-03-31T15:38:18.533Z,2.30
2023-03-31T15:40:51.472Z,1.10
2023-03-31T15:43:28.402Z,1.70
2023-03-31T15:45:57.618Z,1.20
2023-03-31T15:48:33.913Z,1.13
2023-03-31T15:51:07.713Z,1.80
2023-03-31T15:53:39.096Z,0.90
2023-03-31T15:56:08.381Z,1.07
2023-03-31T15:58:57.648Z,0.40
2023-03-31T16:01:32.885Z,0.73
2023-03-31T16:04:02.488Z,0.40
2023-03-31T16:06:44.906Z,0.40
2023-03-31T16:09:17.420Z,0.53
2023-03-31T16:11:49.218Z,0.40
2023-03-31T16:14:21.727Z,0.83
2023-03-31T16:16:53.884Z,0.97
2023-03-31T16:19:25.092Z,0.40
2023-03-31T16:21:59.531Z,0.50
2023-03-31T16:24:32.458Z,0.60
2023-03-31T16:27:06.158Z,0.87
2023-03-31T16:29:35.516Z,1.10
2023-03-31T16:32:13.338Z,0.70
2023-03-31T16:34:55.859Z,1.27
2023-03-31T16:37:26.323Z,0.90
2023-03-31T16:39:54.720Z,0.60
2023-03-31T16:42:23.983Z,1.20
2023-03-31T16:47:43.692Z,0.53
2023-03-31T16:50:15.443Z,0.57
2023-03-31T16:52:45.711Z,0.20
2023-03-31T16:55:14.156Z,0.50
2023-03-31T16:57:42.547Z,0.40
2023-03-31T17:00:11.986Z,0.53
2023-03-31T17:02:40.372Z,0.60
2023-03-31T17:05:13.220Z,0.47
2023-03-31T17:07:42.230Z,0.40
2023-03-31T17:10:13.873Z,0.60
2023-03-31T17:12:42.394Z,0.63
2023-03-31T17:15:11.855Z,0.60
2023-03-31T17:17:40.341Z,0.70
2023-03-31T17:20:10.486Z,0.60
2023-03-31T17:22:39.238Z,0.60
2023-03-31T17:25:08.114Z,0.50
2023-03-31T17:27:38.021Z,0.83
2023-03-31T17:30:08.598Z,0.80
2023-03-31T17:32:37.798Z,0.80
2023-03-31T17:35:06.719Z,0.70
2023-03-31T17:37:35.391Z,0.63
2023-03-31T17:40:04.655Z,0.80
2023-03-31T17:42:32.860Z,0.90
2023-03-31T17:45:02.759Z,0.70
2023-03-31T17:47:32.671Z,1.20
2023-03-31T17:50:01.159Z,0.90
2023-03-31T17:52:29.683Z,0.87
2023-03-31T17:54:58.545Z,1.17
2023-03-31T17:57:27.427Z,1.10
2023-03-31T17:59:55.941Z,0.80
2023-03-31T18:02:25.703Z,0.70
2023-03-31T18:04:54.859Z,0.73
2023-03-31T18:07:23.980Z,1.00
2023-03-31T18:09:52.316Z,0.77
2023-03-31T18:12:20.475Z,0.97
2023-03-31T18:14:48.738Z,1.10
2023-03-31T18:17:20.023Z,1.20
2023-03-31T18:19:49.585Z,0.90
2023-03-31T18:22:17.773Z,1.30
2023-03-31T18:24:47.711Z,0.77
2023-03-31T18:27:16.089Z,1.00
2023-03-31T18:29:44.381Z,0.97
2023-03-31T18:32:14.692Z,1.17
2023-03-31T18:34:43.155Z,0.90
2023-03-31T18:37:13.401Z,1.20
2023-03-31T18:39:42.078Z,0.80
2023-03-31T18:42:10.259Z,1.20
2023-03-31T18:44:39.465Z,1.30
2023-03-31T18:47:07.864Z,1.20
2023-03-31T18:49:36.180Z,0.83
2023-03-31T18:52:05.484Z,1.00
2023-03-31T18:54:35.093Z,1.10
2023-03-31T18:57:03.284Z,1.60
2023-03-31T18:59:31.805Z,1.47
2023-03-31T19:02:00.270Z,1.60
2023-03-31T19:04:30.234Z,1.73
2023-03-31T19:06:58.549Z,1.57
2023-03-31T19:09:28.142Z,1.17
2023-03-31T19:11:58.435Z,0.80
2023-03-31T19:14:26.770Z,1.20
2023-03-31T19:16:55.059Z,1.20
2023-03-31T19:19:23.551Z,1.67
2023-03-31T19:21:52.501Z,1.50
2023-03-31T19:24:20.684Z,1.47
2023-03-31T19:26:49.390Z,1.17
2023-03-31T19:29:18.986Z,1.53
2023-03-31T19:31:48.604Z,1.80
2023-03-31T19:34:17.716Z,1.13
2023-03-31T19:36:45.933Z,1.33
2023-03-31T19:39:14.201Z,1.33
2023-03-31T19:41:42.321Z,2.80
2023-03-31T19:44:10.477Z,1.60
2023-03-31T19:46:40.389Z,1.40
2023-03-31T19:49:09.536Z,1.70
2023-03-31T19:51:37.866Z,1.30
2023-03-31T19:54:06.316Z,1.10
2023-03-31T19:56:35.051Z,1.30
2023-03-31T19:59:03.407Z,1.30
2023-03-31T20:01:32.111Z,1.50
2023-03-31T20:04:05.117Z,1.43
2023-03-31T20:06:37.176Z,1.10
2023-03-31T20:09:06.497Z,1.40
2023-03-31T20:11:34.825Z,1.27
2023-03-31T20:14:03.985Z,1.37
2023-03-31T20:16:36.023Z,1.47
2023-03-31T20:19:07.949Z,1.70
2023-03-31T20:21:39.078Z,1.27
2023-03-31T20:24:08.535Z,1.77
2023-03-31T20:26:37.721Z,1.67
2023-03-31T20:29:06.033Z,1.80
2023-03-31T20:31:37.775Z,1.60
2023-03-31T20:34:12.397Z,1.80
2023-03-31T20:36:42.034Z,2.50
2023-03-31T20:39:10.571Z,1.47
2023-03-31T20:41:39.090Z,1.60
2023-03-31T20:44:12.030Z,1.73
2023-03-31T20:46:42.101Z,2.33
2023-03-31T20:49:11.981Z,1.80
2023-03-31T20:51:41.784Z,1.77
2023-03-31T20:54:10.294Z,1.77
2023-03-31T20:56:40.606Z,2.47
2023-03-31T20:59:11.205Z,2.20
2023-03-31T21:01:42.511Z,1.80
2023-03-31T21:04:15.273Z,1.87
2023-03-31T21:06:45.253Z,2.17
2023-03-31T21:09:14.570Z,1.97
2023-03-31T21:11:43.443Z,1.73
2023-03-31T21:14:14.650Z,1.90
2023-03-31T21:16:42.931Z,1.80
2023-03-31T21:19:12.988Z,2.23
2023-03-31T21:21:43.203Z,2.07
2023-03-31T21:24:12.779Z,1.70
2023-03-31T21:26:41.492Z,2.13
2023-03-31T21:29:09.710Z,2.43
2023-03-31T21:31:38.105Z,2.43
2023-03-31T21:34:06.460Z,1.90
2023-03-31T21:36:36.330Z,1.60
2023-03-31T21:39:05.144Z,2.23
2023-03-31T21:41:33.539Z,2.27
2023-03-31T21:44:02.984Z,1.87
2023-03-31T21:46:33.897Z,2.20
2023-03-31T21:49:02.631Z,2.00
2023-03-31T21:51:30.782Z,1.80
2023-03-31T21:54:00.327Z,2.20
2023-03-31T21:56:31.924Z,2.33
2023-03-31T21:59:01.172Z,2.07
2023-03-31T22:01:29.503Z,2.20
2023-03-31T22:03:57.944Z,2.17
2023-03-31T22:06:26.394Z,1.70
2023-03-31T22:08:54.544Z,2.00
2023-03-31T22:11:24.461Z,1.40
2023-03-31T22:13:52.624Z,1.80
2023-03-31T22:16:22.944Z,1.87
2023-03-31T22:18:51.585Z,2.10
2023-03-31T22:21:22.072Z,2.50
2023-03-31T22:23:52.839Z,1.70
2023-03-31T22:26:21.793Z,2.30
2023-03-31T22:28:51.735Z,2.00
2023-03-31T22:31:20.720Z,1.83
2023-03-31T22:33:49.382Z,2.23
2023-03-31T22:36:17.785Z,3.07
2023-03-31T22:38:45.976Z,2.77
2023-03-31T22:41:14.167Z,2.23
2023-03-31T22:43:45.341Z,2.10
2023-03-31T22:46:18.208Z,1.97
2023-03-31T22:48:50.375Z,2.20
2023-03-31T22:51:18.562Z,2.40
2023-03-31T22:53:51.600Z,2.07
2023-03-31T22:56:21.132Z,2.03
2023-03-31T22:58:49.914Z,1.70
2023-03-31T23:01:21.941Z,2.50
2023-03-31T23:03:50.248Z,1.90
2023-03-31T23:06:18.994Z,1.93
2023-03-31T23:08:49.015Z,1.70
2023-03-31T23:11:18.748Z,2.20
2023-03-31T23:13:47.618Z,2.10
2023-03-31T23:16:20.294Z,2.07
2023-03-31T23:18:48.827Z,2.20
2023-03-31T23:21:20.133Z,1.73
2023-03-31T23:23:50.168Z,1.77
2023-03-31T23:26:19.399Z,2.40
2023-03-31T23:28:49.608Z,1.63
2023-03-31T23:31:20.293Z,1.83
2023-03-31T23:33:48.909Z,2.00
2023-03-31T23:36:18.587Z,2.10
2023-03-31T23:38:47.748Z,2.30
2023-03-31T23:41:16.654Z,2.13
2023-03-31T23:43:45.797Z,1.90
2023-03-31T23:46:14.479Z,2.30
2023-03-31T23:48:44.169Z,2.10
2023-03-31T23:51:12.737Z,1.97
2023-03-31T23:53:40.844Z,2.23
2023-03-31T23:56:11.422Z,2.27
2023-03-31T23:58:40.268Z,1.93
